Delaware, Arkansas
Current Conditions -  °F | °C
As of 11:53 AM on Wednesday 28 Jan 2015 (Local Time) from KRUE Reporting Station
Clear Clear  
Wind Chill: 54°   Ceiling: Unl
Heat Index: 54°   Visibility: 10mi
Dew Point: 38°   Wind: 8mph
Humidity: 55%   Direction: 100°E
Pressure: 30.16"   Gusts: NA
Location:  35.28°N, 93.3°W
Report Text: KRUE 281753Z AUTO 10007KT 10SM CLR 12/03 A3016 RMK AO2 SLP211 T01220033 10122 20056 58021
Loading
Personal Weather Stations






























Interactive Weather Map New forecast layout! Learn more

10-Day Weather Forecast

Advertisements
Track Severe Weather on mobile